Time;durP1;ratioP1;P1;durP2;ratioP2;P2;SDS_P1;SDS_P2;PMS_P1;PMS_P2;Temp;Humidity;BMP_temperature;BMP_pressure;BME280_temperature;BME280_humidity;BME280_pressure;Samples;Min_cycle;Max_cycle;Signal;HPM_P1;HPM_P2
2021/07/03 00:01:30;;;;;;;7.18;5.30;;;;;;;21.01;56.12;99096.53;5110818;28;20028;-71
2021/07/03 00:03:56;;;;;;;5.95;5.32;;;;;;;21.16;55.45;99092.38;5109104;28;20027;-71
2021/07/03 00:06:21;;;;;;;5.88;5.03;;;;;;;21.04;56.06;99093.66;5110635;28;20031;-70
2021/07/03 00:08:47;;;;;;;8.05;4.63;;;;;;;21.10;55.83;99096.06;5110388;28;20027;-70
2021/07/03 00:11:12;;;;;;;8.95;5.25;;;;;;;21.13;55.03;99084.69;5109231;28;20051;-70
2021/07/03 00:13:39;;;;;;;7.63;5.25;;;;;;;21.14;55.08;99086.28;5110562;28;20454;-70
2021/07/03 00:16:05;;;;;;;8.45;5.28;;;;;;;20.92;55.41;99084.81;5110278;28;20027;-70
2021/07/03 00:18:30;;;;;;;5.53;4.63;;;;;;;20.86;55.79;99071.03;5108977;28;20027;-70
2021/07/03 00:20:56;;;;;;;6.57;4.82;;;;;;;21.08;55.08;99076.56;5110373;28;20042;-70
2021/07/03 00:23:21;;;;;;;7.45;5.10;;;;;;;20.93;55.30;99070.16;5110187;28;20035;-70
2021/07/03 00:25:47;;;;;;;14.07;5.20;;;;;;;21.00;54.84;99077.88;5110503;28;20032;-70
2021/07/03 00:28:12;;;;;;;6.70;4.90;;;;;;;21.25;53.73;99068.34;5110257;28;20465;-70
2021/07/03 00:30:38;;;;;;;6.07;4.88;;;;;;;;;;5110299;28;20035;-70
2021/07/03 00:33:03;;;;;;;5.75;4.68;;;;;;;21.08;53.78;99070.09;5112655;28;20457;-70
2021/07/03 00:35:29;;;;;;;7.30;4.50;;;;;;;20.95;54.22;99075.44;5114019;28;20062;-70
2021/07/03 00:37:55;;;;;;;4.80;4.40;;;;;;;21.07;53.86;99069.28;5112615;28;20051;-70
2021/07/03 00:40:20;;;;;;;5.07;4.68;;;;;;;20.96;54.16;99065.69;5112572;28;20028;-70
2021/07/03 00:42:45;;;;;;;7.63;5.82;;;;;;;20.81;55.07;99080.00;5113860;28;20028;-70
2021/07/03 00:45:11;;;;;;;5.63;5.13;;;;;;;20.73;55.50;99076.34;5114252;28;20046;-70
2021/07/03 00:47:37;;;;;;;5.15;4.65;;;;;;;20.66;54.99;99078.44;5113753;28;20024;-70
2021/07/03 00:50:08;;;;;;;7.15;5.07;;;;;;;20.50;55.92;99082.53;5114445;28;20052;-70
2021/07/03 00:52:34;;;;;;;4.97;4.47;;;;;;;20.51;55.36;99075.63;5113888;28;20510;-70
2021/07/03 00:55:00;;;;;;;4.57;4.18;;;;;;;20.46;55.05;99081.75;5113593;28;20046;-71
2021/07/03 00:57:25;;;;;;;5.03;4.45;;;;;;;20.33;55.31;99079.38;5113847;28;20487;-70
2021/07/03 00:59:51;;;;;;;5.70;4.85;;;;;;;20.24;55.43;99083.88;5112194;28;20089;-70
2021/07/03 01:02:18;;;;;;;4.97;4.57;;;;;;;20.19;56.06;99090.78;5123465;27;20032;-70
2021/07/03 01:04:44;;;;;;;7.45;4.55;;;;;;;20.34;55.36;99083.03;5117084;27;20034;-70
2021/07/03 01:07:11;;;;;;;7.55;5.68;;;;;;;20.19;55.82;99090.78;5091960;28;20480;-71
2021/07/03 01:09:37;;;;;;;6.70;4.70;;;;;;;20.23;56.09;99094.41;5096918;28;20482;-71
2021/07/03 01:12:05;;;;;;;6.63;4.80;;;;;;;20.33;55.19;99087.91;5100438;28;20106;-71
2021/07/03 01:14:31;;;;;;;10.05;5.57;;;;;;;20.46;55.29;99087.44;5113667;28;20038;-71
2021/07/03 01:16:57;;;;;;;4.82;4.43;;;;;;;20.40;55.33;99089.09;5113235;28;20103;-70
2021/07/03 01:19:22;;;;;;;4.82;4.43;;;;;;;20.39;55.54;99093.97;5113690;28;20106;-70
2021/07/03 01:21:48;;;;;;;4.80;4.40;;;;;;;20.44;55.85;99092.72;5113198;28;20557;-70
2021/07/03 01:24:14;;;;;;;4.60;4.20;;;;;;;20.40;55.14;99091.94;5113057;28;20039;-70
2021/07/03 01:26:45;;;;;;;6.50;4.45;;;;;;;20.54;55.44;99080.50;5113266;28;20443;-70
2021/07/03 01:29:11;;;;;;;6.82;5.65;;;;;;;20.58;55.56;99083.34;5113414;28;20023;-70
2021/07/03 01:31:40;;;;;;;4.80;4.40;;;;;;;20.58;54.96;99089.03;5111673;28;20035;-71
2021/07/03 01:34:06;;;;;;;5.43;4.72;;;;;;;20.52;56.13;99091.47;5112883;28;20047;-71
2021/07/03 01:36:31;;;;;;;10.50;4.63;;;;;;;20.43;55.20;99100.41;5112978;28;20653;-70
2021/07/03 01:38:57;;;;;;;6.53;4.93;;;;;;;20.43;53.87;99099.63;5113078;28;20378;-70
2021/07/03 01:41:22;;;;;;;4.22;3.92;;;;;;;20.47;54.19;99100.41;5112900;28;20394;-70
2021/07/03 01:43:48;;;;;;;5.35;4.00;;;;;;;20.46;53.44;99099.63;5112266;28;20081;-71
2021/07/03 01:46:13;;;;;;;4.57;4.20;;;;;;;20.47;53.36;99101.25;5111403;28;20050;-70
2021/07/03 01:48:40;;;;;;;4.40;4.00;;;;;;;20.35;53.61;99101.69;5112917;28;20378;-71
2021/07/03 01:51:05;;;;;;;4.45;4.07;;;;;;;20.37;53.86;99109.78;5112456;28;20024;-70
2021/07/03 01:53:31;;;;;;;5.22;4.47;;;;;;;20.35;54.45;99115.88;5111387;28;20023;-70
2021/07/03 01:55:57;;;;;;;7.47;4.30;;;;;;;20.16;55.07;99109.44;5112506;28;20043;-70
2021/07/03 01:58:25;;;;;;;5.90;4.78;;;;;;;20.09;55.32;99112.31;5112790;28;20088;-70
2021/07/03 02:00:56;;;;;;;4.75;4.45;;;;;;;19.90;55.97;99114.34;5111259;28;20020;-70
2021/07/03 02:03:22;;;;;;;5.05;4.65;;;;;;;19.86;56.98;99112.72;5114606;27;20051;-70
2021/07/03 02:05:47;;;;;;;6.82;4.43;;;;;;;19.78;56.58;99112.72;5112415;28;20040;-70
2021/07/03 02:08:13;;;;;;;5.00;4.53;;;;;;;19.53;57.70;99121.25;5112376;28;20024;-70
2021/07/03 02:10:39;;;;;;;5.15;4.68;;;;;;;19.44;58.33;99118.00;5112284;28;20039;-70
2021/07/03 02:13:05;;;;;;;5.35;4.95;;;;;;;19.69;57.12;99125.69;5117194;27;20154;-71
2021/07/03 02:15:32;;;;;;;5.03;4.60;;;;;;;19.79;56.59;99124.88;5102008;28;20518;-70
2021/07/03 02:17:57;;;;;;;5.18;4.68;;;;;;;19.66;56.91;99123.69;5100851;28;20023;-70
2021/07/03 02:20:23;;;;;;;5.05;4.65;;;;;;;19.80;57.30;99122.88;5096442;28;20086;-71
2021/07/03 02:22:50;;;;;;;5.53;4.80;;;;;;;19.87;55.50;99118.00;5099878;28;20029;-70
2021/07/03 02:25:15;;;;;;;7.00;4.65;;;;;;;19.98;54.97;99120.84;5091402;28;20028;-71
2021/07/03 02:27:41;;;;;;;4.82;4.32;;;;;;;19.73;55.92;99127.31;5097683;28;20036;-71
2021/07/03 02:30:09;;;;;;;6.00;4.75;;;;;;;20.00;54.39;99124.06;5099744;28;20077;-70
2021/07/03 02:32:35;;;;;;;7.38;4.38;;;;;;;19.94;54.63;99124.88;5095975;28;20032;-70
2021/07/03 02:35:00;;;;;;;5.03;4.63;;;;;;;19.91;54.83;99132.97;5090103;28;20028;-70
2021/07/03 02:37:26;;;;;;;7.90;4.90;;;;;;;19.80;54.96;99134.22;5094787;28;20486;-70
2021/07/03 02:39:52;;;;;;;5.53;4.55;;;;;;;19.85;55.05;99128.13;5100044;28;20080;-70
2021/07/03 02:42:17;;;;;;;11.30;5.60;;;;;;;19.91;54.89;99132.19;5117442;27;20036;-71
2021/07/03 02:44:42;;;;;;;6.68;5.22;;;;;;;19.68;55.49;99136.25;5109105;28;20035;-70
2021/07/03 02:47:08;;;;;;;19.90;6.82;;;;;;;19.84;55.33;99135.00;5108699;28;20517;-71
2021/07/03 02:49:33;;;;;;;14.52;6.18;;;;;;;19.71;55.84;99143.94;5111761;28;20396;-67
2021/07/03 02:51:59;;;;;;;5.55;4.90;;;;;;;19.64;56.07;99135.41;5110356;28;20035;-70
2021/07/03 02:54:24;;;;;;;8.10;4.68;;;;;;;19.40;57.00;99137.84;5110382;28;20023;-67
2021/07/03 02:56:50;;;;;;;14.10;5.40;;;;;;;19.58;56.02;99137.06;5111532;28;20088;-71
2021/07/03 02:59:15;;;;;;;29.25;5.93;;;;;;;19.55;55.76;99135.81;5110053;28;20420;-71
2021/07/03 03:01:41;;;;;;;4.90;4.40;;;;;;;19.69;55.95;99131.38;5110542;28;20035;-69
2021/07/03 03:04:06;;;;;;;9.70;5.22;;;;;;;19.57;55.99;99136.22;5119346;27;20024;-68
2021/07/03 03:06:32;;;;;;;7.13;4.78;;;;;;;19.52;56.49;99135.81;5110302;28;20020;-71
2021/07/03 03:08:57;;;;;;;6.10;5.47;;;;;;;19.43;56.48;99139.88;5111292;28;20084;-71
2021/07/03 03:11:22;;;;;;;8.55;5.32;;;;;;;19.54;56.01;99145.56;5110118;28;20027;-71
2021/07/03 03:13:48;;;;;;;8.43;4.38;;;;;;;19.46;56.09;99144.75;5110899;28;20035;-71
2021/07/03 03:16:13;;;;;;;15.48;5.75;;;;;;;19.24;56.92;99145.94;5109627;28;20481;-71
2021/07/03 03:18:39;;;;;;;6.40;5.38;;;;;;;19.20;57.29;99152.41;5102441;28;20096;-71
2021/07/03 03:21:04;;;;;;;17.65;6.38;;;;;;;19.12;57.58;99159.25;5100869;28;20467;-71
2021/07/03 03:23:30;;;;;;;9.00;5.28;;;;;;;19.07;57.45;99149.13;5108220;28;20478;-71
2021/07/03 03:25:55;;;;;;;5.28;4.88;;;;;;;18.88;58.21;99150.25;5108299;28;20028;-72
2021/07/03 03:28:21;;;;;;;5.22;4.82;;;;;;;19.30;56.79;99152.81;5107958;28;20015;-71
2021/07/03 03:30:46;;;;;;;7.95;4.80;;;;;;;19.34;56.07;99156.47;5107285;28;20035;-71
2021/07/03 03:33:12;;;;;;;6.50;4.30;;;;;;;19.35;55.55;99163.78;5093067;28;20032;-71
2021/07/03 03:35:37;;;;;;;5.82;3.90;;;;;;;19.56;54.92;99159.34;5095029;28;20505;-71
2021/07/03 03:38:03;;;;;;;5.28;4.82;;;;;;;19.45;55.49;99171.47;5110215;28;20478;-71
2021/07/03 03:40:28;;;;;;;6.18;5.10;;;;;;;19.46;55.59;99173.09;5110185;28;20485;-72
2021/07/03 03:42:54;;;;;;;6.13;4.65;;;;;;;19.45;55.69;99167.81;5099111;28;20161;-71
2021/07/03 03:45:20;;;;;;;8.60;5.88;;;;;;;19.47;55.98;99171.88;5105138;28;20035;-71
2021/07/03 03:47:46;;;;;;;13.82;5.65;;;;;;;19.63;55.68;99174.34;5110653;28;20158;-71
2021/07/03 03:50:12;;;;;;;5.72;4.28;;;;;;;19.69;55.38;99177.59;5111266;28;20484;-71
2021/07/03 03:52:38;;;;;;;8.73;4.15;;;;;;;19.77;54.28;99181.22;5110518;28;20417;-72
2021/07/03 03:55:05;;;;;;;4.32;4.00;;;;;;;20.03;53.71;99185.72;5111245;28;20036;-72
2021/07/03 03:57:31;;;;;;;11.43;4.88;;;;;;;20.11;52.85;99185.69;5110531;28;20084;-71
2021/07/03 03:59:58;;;;;;;5.50;3.97;;;;;;;20.16;53.08;99188.94;5111168;28;20028;-71
2021/07/03 04:02:24;;;;;;;6.32;4.30;;;;;;;19.96;53.87;99177.19;5109336;28;20039;-72
2021/07/03 04:04:50;;;;;;;9.35;5.10;;;;;;;20.01;54.26;99193.81;5110887;28;20032;-71
2021/07/03 04:07:19;;;;;;;27.73;5.47;;;;;;;20.01;54.72;99198.69;5114750;28;20034;-71
2021/07/03 04:09:45;;;;;;;10.68;5.57;;;;;;;20.05;54.78;99193.81;5113293;28;20026;-71
2021/07/03 04:12:11;;;;;;;8.00;4.93;;;;;;;20.07;55.21;99202.72;5114630;28;20063;-72
2021/07/03 04:14:36;;;;;;;5.57;5.07;;;;;;;20.14;54.76;99197.06;5113279;28;20573;-71
2021/07/03 04:17:03;;;;;;;7.70;4.63;;;;;;;20.06;54.70;99201.94;5113405;28;20024;-71
2021/07/03 04:19:29;;;;;;;4.90;4.50;;;;;;;20.03;55.10;99205.59;5114946;27;20248;-72
2021/07/03 04:21:55;;;;;;;8.15;4.10;;;;;;;20.17;54.36;99203.94;5113052;28;20023;-72
2021/07/03 04:24:20;;;;;;;4.38;3.78;;;;;;;20.06;55.01;99201.94;5113166;28;20038;-71
2021/07/03 04:26:46;;;;;;;4.15;3.03;;;;;;;20.15;55.30;99200.69;5114472;28;20542;-71
2021/07/03 04:29:11;;;;;;;3.50;3.20;;;;;;;20.30;54.98;99201.47;5114621;28;20036;-71
2021/07/03 04:31:36;;;;;;;4.43;4.03;;;;;;;20.46;54.42;99192.53;5114063;28;20032;-71
2021/07/03 04:34:02;;;;;;;6.15;4.43;;;;;;;20.48;54.33;99192.94;5113145;28;20400;-71
2021/07/03 04:36:28;;;;;;;6.72;5.65;;;;;;;20.51;54.72;99194.94;5112959;28;20445;-72
2021/07/03 04:38:53;;;;;;;9.48;5.28;;;;;;;20.58;53.68;99200.63;5112710;28;20023;-71
2021/07/03 04:41:19;;;;;;;7.85;5.22;;;;;;;20.66;53.43;99203.44;5113312;28;20027;-71
2021/07/03 04:43:44;;;;;;;6.97;4.30;;;;;;;20.59;53.91;99198.59;5113880;28;20431;-71
2021/07/03 04:46:10;;;;;;;4.72;3.63;;;;;;;20.57;53.22;99201.84;5114009;28;20032;-71
2021/07/03 04:48:35;;;;;;;3.88;3.50;;;;;;;20.79;52.33;99206.63;5114126;28;20031;-71
2021/07/03 04:51:00;;;;;;;4.72;3.13;;;;;;;20.82;51.88;99191.66;5112640;28;20420;-71
2021/07/03 04:53:26;;;;;;;13.13;4.00;;;;;;;20.89;51.28;99200.97;5112475;28;20110;-71
2021/07/03 04:55:51;;;;;;;4.40;3.40;;;;;;;21.01;51.08;99201.72;5112516;28;20032;-71
2021/07/03 04:58:17;;;;;;;2.92;2.72;;;;;;;20.97;49.75;99189.53;5113866;28;20031;-71
2021/07/03 05:00:43;;;;;;;5.65;3.58;;;;;;;20.91;50.11;99192.00;5113793;28;20035;-72
2021/07/03 05:03:27;;;;;;;6.55;3.20;;;;;;;20.90;49.65;99190.38;5112429;28;20123;-71
2021/07/03 05:05:52;;;;;;;2.85;2.40;;;;;;;21.00;49.51;99188.72;5112657;28;20520;-72
2021/07/03 05:08:18;;;;;;;8.13;2.80;;;;;;;21.09;48.75;99191.91;5113322;28;20028;-71
2021/07/03 05:10:43;;;;;;;4.50;2.45;;;;;;;21.06;49.28;99184.22;5112631;28;20440;-71
2021/07/03 05:13:09;;;;;;;2.63;2.40;;;;;;;21.15;48.70;99186.59;5112274;28;20023;-72
2021/07/03 05:15:34;;;;;;;4.50;2.70;;;;;;;21.32;48.65;99187.72;5112315;28;20031;-71
2021/07/03 05:18:02;;;;;;;4.22;2.67;;;;;;;21.27;49.27;99191.03;5111279;28;20408;-72
2021/07/03 05:20:27;;;;;;;7.13;3.58;;;;;;;21.35;50.23;99192.56;5111967;28;20035;-71
2021/07/03 05:22:53;;;;;;;4.15;3.28;;;;;;;21.37;48.92;99187.31;5109717;28;20020;-68
2021/07/03 05:25:18;;;;;;;4.18;2.50;;;;;;;21.34;48.22;99184.47;5112254;28;20032;-72
2021/07/03 05:27:44;;;;;;;5.53;2.40;;;;;;;21.39;48.36;99186.88;5113005;28;20024;-71
2021/07/03 05:30:10;;;;;;;5.32;2.65;;;;;;;21.51;48.48;99185.59;5113060;28;20035;-72
2021/07/03 05:32:35;;;;;;;13.68;3.58;;;;;;;21.46;48.80;99190.47;5111686;28;20035;-71
2021/07/03 05:35:01;;;;;;;7.85;2.78;;;;;;;21.63;47.84;99184.28;5100984;28;20035;-71
2021/07/03 05:37:26;;;;;;;8.80;3.03;;;;;;;21.66;47.22;99184.28;5108094;28;20085;-72
2021/07/03 05:39:51;;;;;;;2.70;2.30;;;;;;;21.61;47.21;99193.25;5111810;28;20027;-72
2021/07/03 05:42:17;;;;;;;8.43;2.13;;;;;;;21.71;47.01;99192.34;5112912;27;20027;-72
2021/07/03 05:44:42;;;;;;;5.00;2.35;;;;;;;21.90;47.82;99186.53;5111535;28;20039;-71
2021/07/03 05:47:08;;;;;;;6.47;2.45;;;;;;;21.89;47.96;99185.72;5111702;28;20151;-71
2021/07/03 05:49:34;;;;;;;7.28;2.58;;;;;;;22.10;46.25;99179.03;5112927;27;20022;-72
2021/07/03 05:51:59;;;;;;;2.88;2.10;;;;;;;22.03;45.74;99181.97;5111349;28;20089;-71
2021/07/03 05:54:24;;;;;;;5.22;2.30;;;;;;;22.06;45.90;99186.81;5112754;28;20034;-72
2021/07/03 05:56:50;;;;;;;9.82;2.78;;;;;;;22.21;45.52;99186.66;5112715;28;20027;-71
2021/07/03 05:59:16;;;;;;;6.07;2.38;;;;;;;22.19;45.83;99189.91;5111248;28;20031;-72
2021/07/03 06:01:41;;;;;;;8.98;4.22;;;;;;;22.34;45.32;99189.81;5112383;28;20107;-72
2021/07/03 06:04:07;;;;;;;8.55;2.80;;;;;;;22.47;45.48;99190.88;5112549;28;20030;-71
2021/07/03 06:06:33;;;;;;;14.23;4.43;;;;;;;22.56;45.29;99176.16;5110901;28;20474;-71
2021/07/03 06:08:59;;;;;;;4.40;3.20;;;;;;;22.60;45.65;99188.31;5112590;28;20054;-71
2021/07/03 06:11:24;;;;;;;12.00;2.95;;;;;;;22.55;44.98;99186.72;5110775;28;20489;-71
2021/07/03 06:13:50;;;;;;;7.22;3.42;;;;;;;22.67;44.26;99173.16;5111005;28;20024;-69
2021/07/03 06:16:15;;;;;;;8.45;3.70;;;;;;;22.84;44.22;99180.69;5112311;28;20513;-71
2021/07/03 06:18:41;;;;;;;5.45;2.30;;;;;;;22.78;44.05;99188.09;5112217;28;20019;-71
2021/07/03 06:21:06;;;;;;;5.25;2.10;;;;;;;22.99;43.75;99177.66;5112344;28;20052;-72
2021/07/03 06:23:32;;;;;;;3.85;2.30;;;;;;;22.91;43.18;99178.97;5111716;27;20103;-69
2021/07/03 06:26:00;;;;;;;4.75;2.05;;;;;;;22.72;43.79;99172.72;5122651;27;20030;-71
2021/07/03 06:28:31;;;;;;;8.77;2.60;;;;;;;22.65;45.09;99178.47;5108787;28;20453;-70
2021/07/03 06:30:56;;;;;;;7.45;2.63;;;;;;;22.74;44.27;99177.97;5109011;28;20024;-70
2021/07/03 06:33:22;;;;;;;3.60;1.73;;;;;;;22.65;44.05;99172.78;5109618;28;20058;-71
2021/07/03 06:35:47;;;;;;;7.45;2.17;;;;;;;22.75;44.74;99185.31;5107020;28;20040;-72
2021/07/03 06:38:13;;;;;;;6.90;2.25;;;;;;;22.65;43.63;99173.59;5109681;28;20032;-71
2021/07/03 06:40:38;;;;;;;25.27;4.05;;;;;;;22.89;44.43;99182.28;5107146;28;20109;-72
2021/07/03 06:43:05;;;;;;;32.13;4.50;;;;;;;22.97;41.72;99172.38;5109442;28;20047;-73
2021/07/03 06:45:30;;;;;;;8.55;2.83;;;;;;;23.12;41.67;99177.91;5108057;28;20031;-72
2021/07/03 06:47:56;;;;;;;5.40;3.05;;;;;;;23.09;42.41;99181.59;5108508;28;20027;-71
2021/07/03 06:50:21;;;;;;;4.38;3.15;;;;;;;22.94;42.82;99178.16;5109489;28;20462;-71
2021/07/03 06:52:47;;;;;;;13.88;4.50;;;;;;;22.99;43.20;99180.50;5093494;28;20023;-71
2021/07/03 06:55:13;;;;;;;11.52;3.55;;;;;;;23.07;43.38;99176.34;5109840;28;20480;-70
2021/07/03 06:57:39;;;;;;;3.60;3.08;;;;;;;23.39;42.45;99171.44;5106860;28;20107;-71
2021/07/03 07:00:05;;;;;;;5.38;2.90;;;;;;;23.57;42.80;99165.47;5109652;28;20450;-70
2021/07/03 07:02:31;;;;;;;27.45;3.42;;;;;;;23.60;41.03;99161.72;5094225;28;20035;-70
2021/07/03 07:04:56;;;;;;;5.63;3.38;;;;;;;23.66;41.98;99153.50;5108888;28;20020;-71
2021/07/03 07:07:22;;;;;;;6.55;2.70;;;;;;;23.68;41.33;99148.97;5109157;28;20035;-72
2021/07/03 07:09:47;;;;;;;5.70;2.70;;;;;;;23.74;40.67;99151.31;5107020;28;20011;-71
2021/07/03 07:12:13;;;;;;;11.32;3.17;;;;;;;23.72;39.11;99137.50;5108873;28;20104;-70
2021/07/03 07:14:41;;;;;;;3.33;2.65;;;;;;;23.84;39.18;99141.75;5111576;28;20100;-71
2021/07/03 07:17:07;;;;;;;7.00;3.05;;;;;;;23.97;40.01;99136.25;5110930;28;20035;-70
2021/07/03 07:19:33;;;;;;;5.45;2.75;;;;;;;23.78;39.13;99146.38;5111341;28;20028;-71
2021/07/03 07:21:58;;;;;;;7.85;3.35;;;;;;;23.82;40.55;99135.69;5110935;28;20670;-72
2021/07/03 07:24:23;;;;;;;5.82;3.17;;;;;;;23.89;40.41;99135.56;5109907;28;20421;-71
2021/07/03 07:26:49;;;;;;;5.07;3.15;;;;;;;24.16;39.91;99134.72;5109652;28;20126;-72
2021/07/03 07:29:15;;;;;;;5.75;2.80;;;;;;;24.09;40.46;99131.97;5111239;28;20055;-70
2021/07/03 07:31:40;;;;;;;5.70;3.50;;;;;;;24.24;41.20;99141.09;5109647;28;20044;-70
2021/07/03 07:34:06;;;;;;;4.28;3.08;;;;;;;24.30;41.21;99133.59;5111140;28;20020;-71
2021/07/03 07:36:32;;;;;;;5.28;3.40;;;;;;;24.12;40.17;99131.09;5109944;28;20043;-72
2021/07/03 07:38:57;;;;;;;3.63;3.15;;;;;;;24.14;39.41;99145.78;5108826;28;20058;-71
2021/07/03 07:41:23;;;;;;;5.00;3.08;;;;;;;24.17;40.33;99132.63;5102414;28;20051;-72
2021/07/03 07:43:48;;;;;;;11.20;3.08;;;;;;;24.46;39.73;99134.97;5092751;28;20046;-69
2021/07/03 07:46:14;;;;;;;6.32;2.90;;;;;;;24.40;37.90;99124.03;5094798;28;20429;-69
2021/07/03 07:48:41;;;;;;;2.85;2.55;;;;;;;24.54;36.89;99116.41;5100828;28;20094;-71
2021/07/03 07:51:07;;;;;;;8.07;2.22;;;;;;;24.30;35.57;99113.59;5095671;28;20055;-71
2021/07/03 07:53:33;;;;;;;3.70;2.50;;;;;;;24.56;37.54;99116.78;5087051;28;20493;-74
2021/07/03 07:55:59;;;;;;;6.63;2.90;;;;;;;24.54;36.51;99122.13;5095073;28;20040;-71
2021/07/03 07:58:25;;;;;;;14.48;3.35;;;;;;;24.49;36.84;99112.00;5089273;28;20499;-71
2021/07/03 08:00:54;;;;;;;8.07;2.42;;;;;;;24.59;37.17;99106.50;5101234;28;20053;-72
2021/07/03 08:03:20;;;;;;;4.60;1.77;;;;;;;24.58;35.18;99108.56;5096896;28;20024;-72
2021/07/03 08:05:46;;;;;;;11.52;2.50;;;;;;;24.62;37.34;99109.28;5102514;28;20337;-71
2021/07/03 08:08:12;;;;;;;5.78;2.50;;;;;;;24.99;36.46;99109.38;5096685;28;20052;-71
2021/07/03 08:10:40;;;;;;;8.23;2.10;;;;;;;24.83;35.01;99103.59;5101419;28;20027;-70
2021/07/03 08:13:06;;;;;;;15.80;2.90;;;;;;;24.91;34.01;99100.13;5106000;28;20027;-74
2021/07/03 08:15:31;;;;;;;3.90;2.22;;;;;;;25.17;34.67;99097.50;5109145;28;20039;-71
2021/07/03 08:17:58;;;;;;;7.78;2.00;;;;;;;25.35;34.49;99093.41;5110827;28;20054;-73
2021/07/03 08:20:24;;;;;;;3.47;2.13;;;;;;;25.31;34.67;99096.34;5110210;28;20428;-72
2021/07/03 08:22:52;;;;;;;4.32;2.72;;;;;;;25.21;35.46;99103.94;5109118;28;20024;-74
2021/07/03 08:25:19;;;;;;;3.28;2.47;;;;;;;25.42;36.10;99110.41;5109095;28;20118;-74
2021/07/03 08:27:46;;;;;;;5.70;2.70;;;;;;;25.23;33.64;99110.03;5109143;28;20470;-75
2021/07/03 08:30:13;;;;;;;2.47;1.88;;;;;;;25.16;34.61;99109.38;5110683;28;20054;-72
2021/07/03 08:32:39;;;;;;;13.98;2.28;;;;;;;25.16;34.80;99107.34;5109003;28;20469;-72
2021/07/03 08:35:06;;;;;;;4.80;2.15;;;;;;;25.31;34.89;99102.06;5109009;28;20031;-71
2021/07/03 08:37:32;;;;;;;11.85;2.45;;;;;;;25.45;35.08;99111.56;5110116;28;20031;-72
2021/07/03 08:39:57;;;;;;;4.40;2.35;;;;;;;25.75;34.47;99112.50;5109113;28;20036;-73
2021/07/03 08:42:23;;;;;;;7.05;2.28;;;;;;;25.68;33.29;99107.75;5110031;28;20035;-72
2021/07/03 08:44:49;;;;;;;3.88;2.47;;;;;;;25.48;33.87;99111.47;5109031;28;20023;-72
2021/07/03 08:47:17;;;;;;;2.83;2.10;;;;;;;25.20;33.95;99118.69;5108594;28;20047;-69
2021/07/03 08:49:50;;;;;;;2.78;2.50;;;;;;;24.96;34.78;99121.69;5119251;28;20028;-71
2021/07/03 08:52:16;;;;;;;3.05;2.35;;;;;;;24.68;35.08;99124.69;5109123;28;20038;-71
2021/07/03 08:54:41;;;;;;;9.13;2.78;;;;;;;24.76;35.32;99116.78;5110895;28;20020;-71
2021/07/03 08:57:07;;;;;;;5.53;2.92;;;;;;;24.69;34.83;99125.50;5099422;28;20413;-71
2021/07/03 08:59:32;;;;;;;4.40;2.83;;;;;;;24.76;35.19;99122.50;5108437;28;20441;-72
2021/07/03 09:02:00;;;;;;;3.83;2.80;;;;;;;24.72;35.17;99116.03;5111710;28;20045;-72
2021/07/03 09:04:40;;;;;;;3.33;2.95;;;;;;;24.78;35.80;99117.16;5095786;28;20501;-71
2021/07/03 09:07:18;;;;;;;7.78;2.42;;;;;;;24.68;35.78;99121.03;5101104;28;20116;-74
2021/07/03 09:09:51;;;;;;;5.82;2.72;;;;;;;24.58;36.46;99114.28;5106706;28;20027;-76
2021/07/03 09:12:30;;;;;;;5.40;2.60;;;;;;;24.60;35.96;99108.13;5107991;28;20042;-74
2021/07/03 09:14:55;;;;;;;5.75;2.50;;;;;;;24.97;35.01;99108.97;5112280;28;20508;-74
2021/07/03 09:17:21;;;;;;;3.78;2.47;;;;;;;24.93;35.38;99102.53;5113406;28;20036;-75
2021/07/03 09:19:51;;;;;;;2.40;2.20;;;;;;;24.92;34.80;99104.63;5113750;28;20020;-73
2021/07/03 09:22:18;;;;;;;2.90;2.50;;;;;;;25.23;35.43;99112.09;5112306;28;20028;-71
2021/07/03 09:24:43;;;;;;;4.68;2.95;;;;;;;25.14;35.16;99104.09;5113645;28;20039;-70
2021/07/03 09:27:12;;;;;;;3.25;2.88;;;;;;;25.02;34.90;99099.88;5113219;28;20456;-69
2021/07/03 09:29:49;;;;;;;3.53;3.22;;;;;;;24.88;36.04;99098.16;5113497;28;20066;-69
2021/07/03 09:32:14;;;;;;;3.70;2.92;;;;;;;25.21;35.21;99092.50;5112952;27;20105;-69
2021/07/03 09:34:41;;;;;;;4.97;3.25;;;;;;;25.79;35.72;99096.84;5113050;28;20520;-70
2021/07/03 09:37:06;;;;;;;4.05;3.08;;;;;;;25.80;34.19;99091.91;5113060;28;20039;-72
2021/07/03 09:39:41;;;;;;;4.13;2.85;;;;;;;25.71;34.16;99089.66;5111780;28;20504;-71
2021/07/03 09:42:14;;;;;;;3.65;2.90;;;;;;;25.98;34.90;99079.16;5111431;28;20033;-70
2021/07/03 09:44:40;;;;;;;2.42;2.22;;;;;;;26.02;34.86;99082.72;5113237;28;20034;-71
2021/07/03 09:47:05;;;;;;;2.45;2.13;;;;;;;25.67;35.00;99083.25;5112651;28;20032;-71
2021/07/03 09:49:31;;;;;;;5.63;2.40;;;;;;;25.94;33.86;99096.44;5111543;28;20034;-70
2021/07/03 09:52:00;;;;;;;2.42;2.20;;;;;;;25.75;33.01;99086.72;5112857;28;20032;-71
2021/07/03 09:54:27;;;;;;;4.35;2.05;;;;;;;26.02;33.94;99077.00;5112782;28;20028;-71
2021/07/03 09:57:00;;;;;;;4.20;2.53;;;;;;;26.24;35.00;99079.31;5112568;28;20038;-71
2021/07/03 09:59:27;;;;;;;6.00;2.10;;;;;;;26.33;34.40;99085.97;5111181;28;20019;-71
2021/07/03 10:01:53;;;;;;;2.85;2.40;;;;;;;26.11;34.62;99082.06;5112465;28;20500;-72
2021/07/03 10:04:19;;;;;;;3.63;2.22;;;;;;;25.88;33.80;99072.44;5111576;28;20055;-73
2021/07/03 10:07:07;;;;;;;8.90;2.78;;;;;;;26.09;35.10;99073.94;5112506;27;20023;-73
2021/07/03 10:09:38;;;;;;;5.00;2.05;;;;;;;26.45;36.15;99072.13;5111586;28;20065;-70
2021/07/03 10:12:08;;;;;;;4.45;2.13;;;;;;;26.49;33.15;99064.25;5111387;28;20039;-77
2021/07/03 10:14:39;;;;;;;2.60;2.15;;;;;;;26.38;34.32;99055.97;5110184;28;20457;-73
2021/07/03 10:17:05;;;;;;;3.75;1.95;;;;;;;26.18;33.53;99058.97;5101723;28;20092;-70
2021/07/03 10:19:37;;;;;;;4.88;2.47;;;;;;;26.04;34.96;99060.16;5103615;28;20031;-71
2021/07/03 10:22:12;;;;;;;4.05;2.10;;;;;;;25.74;34.10;99045.81;5111688;28;20405;-71
2021/07/03 10:24:59;;;;;;;3.90;2.33;;;;;;;25.53;33.87;99050.06;5101821;28;20111;-70
2021/07/03 10:27:29;;;;;;;5.75;2.05;;;;;;;25.27;34.77;99049.84;5098372;28;20115;-71
2021/07/03 10:30:00;;;;;;;7.53;2.08;;;;;;;25.64;35.41;99050.56;5112533;28;20028;-70
2021/07/03 10:32:30;;;;;;;4.15;2.03;;;;;;;25.77;35.29;99039.19;5102443;28;20039;-71
2021/07/03 10:35:14;;;;;;;3.33;1.92;;;;;;;26.01;34.48;99047.56;5091499;28;20390;-71
2021/07/03 10:37:40;;;;;;;2.40;2.17;;;;;;;26.24;34.40;99044.91;5098660;28;20628;-71
2021/07/03 10:40:17;;;;;;;2.20;1.98;;;;;;;26.02;33.07;99042.63;5110022;28;20409;-71
2021/07/03 10:42:42;;;;;;;5.70;2.20;;;;;;;26.25;34.69;99037.91;5094726;28;20459;-72
2021/07/03 10:45:11;;;;;;;4.25;1.90;;;;;;;26.19;33.46;99034.81;5111490;28;20023;-72
2021/07/03 10:47:37;;;;;;;6.35;2.50;;;;;;;25.74;33.79;99033.56;5099748;28;20043;-70
2021/07/03 10:50:24;;;;;;;2.63;2.03;;;;;;;25.63;33.96;99028.94;5112023;28;20389;-71
2021/07/03 10:52:52;;;;;;;5.00;2.63;;;;;;;26.36;33.88;99038.41;5111325;28;20067;-72
2021/07/03 10:55:29;;;;;;;7.22;2.55;;;;;;;26.59;32.89;99040.16;5110218;28;20054;-71
2021/07/03 10:57:54;;;;;;;4.68;2.28;;;;;;;26.54;32.92;99025.59;5111320;28;20031;-71
2021/07/03 11:00:24;;;;;;;3.63;2.55;;;;;;;26.54;32.86;99031.34;5111762;28;20465;-67
2021/07/03 11:02:51;;;;;;;4.45;2.03;;;;;;;26.79;33.62;99024.84;5111308;28;20070;-68
2021/07/03 11:05:17;;;;;;;2.72;2.10;;;;;;;26.94;31.54;99022.34;5111049;28;20038;-68
2021/07/03 11:07:45;;;;;;;2.30;2.10;;;;;;;26.94;31.49;99016.63;5111113;28;20442;-68
2021/07/03 11:10:16;;;;;;;7.85;2.33;;;;;;;26.55;31.92;99019.41;5111767;28;20035;-69
2021/07/03 11:12:45;;;;;;;6.00;2.28;;;;;;;26.27;32.83;99015.34;5109813;28;20032;-69
2021/07/03 11:15:14;;;;;;;4.30;1.50;;;;;;;26.14;32.48;99007.47;5109146;28;20069;-68
2021/07/03 11:17:40;;;;;;;3.90;1.80;;;;;;;26.21;32.18;99018.78;5111109;28;20046;-70
2021/07/03 11:20:06;;;;;;;3.88;2.00;;;;;;;26.40;33.71;99021.13;5108691;28;20485;-68
2021/07/03 11:22:31;;;;;;;3.35;1.48;;;;;;;26.40;31.76;99021.13;5101752;28;20508;-69
2021/07/03 11:24:59;;;;;;;3.08;1.90;;;;;;;26.42;32.62;99010.78;5110788;27;20458;-71
2021/07/03 11:27:29;;;;;;;1.58;1.45;;;;;;;26.83;31.60;99010.38;5090075;28;20032;-70
2021/07/03 11:29:55;;;;;;;4.68;1.60;;;;;;;26.87;33.81;99006.16;5102727;28;20509;-69
2021/07/03 11:32:21;;;;;;;5.82;2.17;;;;;;;26.42;32.27;99010.00;5093208;28;20060;-71